createdAt,value
2023-05-23T00:01:02.176Z,4.57
2023-05-23T00:03:31.141Z,4.70
2023-05-23T00:05:58.968Z,4.65
2023-05-23T00:08:25.968Z,4.03
2023-05-23T00:10:52.680Z,3.75
2023-05-23T00:13:19.754Z,3.30
2023-05-23T00:15:46.676Z,3.60
2023-05-23T00:18:13.090Z,3.67
2023-05-23T00:20:41.572Z,3.10
2023-05-23T00:23:09.908Z,3.53
2023-05-23T00:25:37.437Z,3.78
2023-05-23T00:28:05.066Z,3.60
2023-05-23T00:30:33.776Z,3.80
2023-05-23T00:33:00.624Z,3.80
2023-05-23T00:35:27.502Z,3.65
2023-05-23T00:37:54.152Z,3.58
2023-05-23T00:40:21.725Z,4.00
2023-05-23T00:42:48.453Z,3.50
2023-05-23T00:45:17.037Z,3.28
2023-05-23T00:47:45.589Z,3.55
2023-05-23T00:50:17.242Z,3.50
2023-05-23T00:52:45.755Z,3.17
2023-05-23T00:55:13.359Z,2.75
2023-05-23T00:57:41.227Z,3.35
2023-05-23T01:00:12.709Z,3.25
2023-05-23T01:02:43.492Z,3.42
2023-05-23T01:05:14.402Z,3.00
2023-05-23T01:07:41.557Z,3.35
2023-05-23T01:10:10.227Z,3.13
2023-05-23T01:12:58.029Z,3.30
2023-05-23T01:15:33.129Z,2.90
2023-05-23T01:18:08.149Z,3.90
2023-05-23T01:20:41.497Z,3.63
2023-05-23T01:23:23.845Z,4.13
2023-05-23T01:26:03.573Z,4.25
2023-05-23T01:28:36.613Z,4.05
2023-05-23T01:31:06.500Z,3.72
2023-05-23T01:33:35.040Z,4.32
2023-05-23T01:36:05.256Z,4.45
2023-05-23T01:38:31.996Z,4.13
2023-05-23T01:40:59.973Z,4.63
2023-05-23T01:43:26.446Z,4.47
2023-05-23T01:45:57.472Z,4.18
2023-05-23T01:48:27.371Z,3.97
2023-05-23T01:50:54.222Z,4.15
2023-05-23T01:53:23.417Z,4.05
2023-05-23T01:55:51.175Z,4.03
2023-05-23T01:58:17.901Z,4.25
2023-05-23T02:00:46.009Z,4.53
2023-05-23T02:03:12.835Z,4.15
2023-05-23T02:05:40.387Z,4.07
2023-05-23T02:08:07.192Z,4.47
2023-05-23T02:10:34.125Z,3.75
2023-05-23T02:13:00.950Z,3.70
2023-05-23T02:15:28.355Z,3.90
2023-05-23T02:17:54.846Z,4.35
2023-05-23T02:20:21.331Z,4.38
2023-05-23T02:22:48.189Z,4.25
2023-05-23T02:25:15.872Z,3.95
2023-05-23T02:27:42.391Z,4.00
2023-05-23T02:30:09.724Z,4.15
2023-05-23T02:32:37.967Z,4.22
2023-05-23T02:35:06.116Z,5.40
2023-05-23T02:37:32.742Z,5.20
2023-05-23T02:39:59.993Z,4.75
2023-05-23T02:42:26.534Z,6.40
2023-05-23T02:44:52.978Z,6.22
2023-05-23T02:47:19.560Z,7.10
2023-05-23T02:49:45.999Z,5.85
2023-05-23T02:52:13.490Z,5.15
2023-05-23T02:54:40.925Z,5.60
2023-05-23T02:57:07.369Z,5.15
2023-05-23T02:59:37.321Z,4.88
2023-05-23T03:02:03.801Z,4.90
2023-05-23T03:04:30.362Z,3.72
2023-05-23T03:06:59.646Z,4.30
2023-05-23T03:09:26.808Z,3.50
2023-05-23T03:11:53.413Z,4.03
2023-05-23T03:14:20.001Z,4.32
2023-05-23T03:16:48.875Z,3.67
2023-05-23T03:19:16.120Z,3.88
2023-05-23T03:21:44.308Z,4.15
2023-05-23T03:24:11.836Z,3.72
2023-05-23T03:26:38.722Z,3.80
2023-05-23T03:29:05.335Z,3.45
2023-05-23T03:31:32.057Z,3.80
2023-05-23T03:33:58.710Z,4.05
2023-05-23T03:36:28.501Z,4.18
2023-05-23T03:38:55.578Z,4.47
2023-05-23T03:41:22.177Z,3.88
2023-05-23T03:43:49.727Z,3.88
2023-05-23T03:46:16.373Z,4.32
2023-05-23T03:48:43.768Z,5.05
2023-05-23T03:51:10.405Z,5.95
2023-05-23T03:53:36.991Z,5.80
2023-05-23T03:56:04.594Z,6.00
2023-05-23T03:58:32.019Z,5.47
2023-05-23T04:01:03.486Z,4.90
2023-05-23T04:03:32.778Z,5.63
2023-05-23T04:06:01.028Z,5.70
2023-05-23T04:08:29.400Z,5.60
2023-05-23T04:10:56.620Z,5.82
2023-05-23T04:13:26.447Z,5.78
2023-05-23T04:15:56.252Z,5.72
2023-05-23T04:18:24.020Z,6.03
2023-05-23T04:20:50.733Z,6.60
2023-05-23T04:23:17.267Z,5.50
2023-05-23T04:25:48.363Z,6.40
2023-05-23T04:28:21.917Z,6.05
2023-05-23T04:30:49.337Z,6.18
2023-05-23T04:33:19.758Z,6.78
2023-05-23T04:35:46.830Z,6.07
2023-05-23T04:38:13.750Z,5.82
2023-05-23T04:40:40.485Z,6.63
2023-05-23T04:43:27.421Z,6.28
2023-05-23T04:45:57.938Z,5.57
2023-05-23T04:48:44.722Z,6.13
2023-05-23T04:51:11.465Z,6.10
2023-05-23T04:54:01.557Z,7.28
2023-05-23T04:56:28.946Z,6.22
2023-05-23T04:58:56.087Z,6.90
2023-05-23T05:01:26.564Z,6.05
2023-05-23T05:03:53.619Z,6.03
2023-05-23T05:06:21.240Z,6.68
2023-05-23T05:08:48.325Z,6.40
2023-05-23T05:11:14.919Z,6.05
2023-05-23T05:13:41.937Z,6.45
2023-05-23T05:16:08.492Z,7.10
2023-05-23T05:18:36.297Z,6.85
2023-05-23T05:21:02.855Z,7.13
2023-05-23T05:23:31.912Z,7.05
2023-05-23T05:26:00.797Z,6.90
2023-05-23T05:28:27.760Z,5.88
2023-05-23T05:30:54.680Z,6.47
2023-05-23T05:33:25.949Z,6.32
2023-05-23T05:36:03.327Z,5.93
2023-05-23T05:38:30.596Z,5.90
2023-05-23T05:40:57.102Z,6.13
2023-05-23T05:43:26.448Z,6.05
2023-05-23T05:45:53.330Z,5.80
2023-05-23T05:48:20.187Z,6.05
2023-05-23T05:50:47.049Z,5.45
2023-05-23T05:53:14.083Z,5.90
2023-05-23T05:55:40.961Z,5.72
2023-05-23T05:58:07.502Z,5.65
2023-05-23T06:00:49.263Z,5.85
2023-05-23T06:03:16.017Z,5.68
2023-05-23T06:05:49.766Z,5.70
2023-05-23T06:08:16.326Z,6.45
2023-05-23T06:10:44.229Z,6.72
2023-05-23T06:13:10.792Z,5.95
2023-05-23T06:15:39.166Z,6.32
2023-05-23T06:18:05.748Z,6.32
2023-05-23T06:20:33.183Z,5.78
2023-05-23T06:23:05.481Z,6.10
2023-05-23T06:25:32.353Z,6.13
2023-05-23T06:27:59.375Z,5.80
2023-05-23T06:30:26.313Z,5.78
2023-05-23T06:32:53.212Z,6.18
2023-05-23T06:35:19.768Z,5.60
2023-05-23T06:37:46.297Z,5.82
2023-05-23T06:40:16.108Z,6.30
2023-05-23T06:42:42.703Z,6.10
2023-05-23T06:45:38.291Z,6.22
2023-05-23T06:48:05.316Z,6.10
2023-05-23T06:50:33.388Z,5.78
2023-05-23T06:52:59.874Z,5.63
2023-05-23T06:55:27.092Z,6.15
2023-05-23T06:57:56.969Z,6.30
2023-05-23T07:00:24.079Z,6.32
2023-05-23T07:03:04.978Z,6.05
2023-05-23T07:05:33.315Z,6.13
2023-05-23T07:08:00.356Z,5.53
2023-05-23T07:10:27.299Z,5.55
2023-05-23T07:12:59.157Z,5.90
2023-05-23T07:15:28.033Z,6.03
2023-05-23T07:18:04.572Z,6.03
2023-05-23T07:20:35.368Z,6.25
2023-05-23T07:23:11.099Z,5.97
2023-05-23T07:25:42.238Z,6.90
2023-05-23T07:28:23.901Z,5.93
2023-05-23T07:30:51.874Z,6.07
2023-05-23T07:33:19.200Z,6.07
2023-05-23T07:35:47.349Z,6.20
2023-05-23T07:38:13.913Z,6.38
2023-05-23T07:40:40.784Z,6.88
2023-05-23T07:43:07.597Z,6.00
2023-05-23T07:45:34.190Z,6.05
2023-05-23T07:48:01.369Z,5.57
2023-05-23T07:50:31.705Z,6.70
2023-05-23T07:52:59.389Z,6.57
2023-05-23T07:55:29.507Z,7.25
2023-05-23T07:57:56.449Z,6.53
2023-05-23T08:00:24.471Z,7.22
2023-05-23T08:02:56.775Z,6.28
2023-05-23T08:05:29.581Z,6.68
2023-05-23T08:07:57.200Z,6.55
2023-05-23T08:10:26.050Z,6.97
2023-05-23T08:12:59.933Z,6.78
2023-05-23T08:15:31.462Z,6.70
2023-05-23T08:18:07.503Z,6.20
2023-05-23T08:20:34.117Z,7.28
2023-05-23T08:23:01.876Z,6.70
2023-05-23T08:25:32.500Z,6.68
2023-05-23T08:28:01.058Z,7.97
2023-05-23T08:30:39.567Z,8.23
2023-05-23T08:33:07.186Z,9.55
2023-05-23T08:35:36.381Z,7.43
2023-05-23T08:38:10.302Z,7.03
2023-05-23T08:40:49.201Z,6.93
2023-05-23T08:43:16.423Z,6.55
2023-05-23T08:45:44.551Z,6.13
2023-05-23T08:48:14.001Z,5.53
2023-05-23T08:50:47.581Z,5.90
2023-05-23T08:53:20.517Z,5.70
2023-05-23T08:55:54.827Z,4.82
2023-05-23T08:58:29.082Z,5.03
2023-05-23T09:00:56.547Z,5.10
2023-05-23T09:03:29.630Z,5.60
2023-05-23T09:06:11.421Z,5.75
2023-05-23T09:08:38.800Z,4.55
2023-05-23T09:11:06.771Z,5.25
2023-05-23T09:13:36.855Z,5.20
2023-05-23T09:16:09.676Z,6.15
2023-05-23T09:18:44.611Z,5.03
2023-05-23T09:21:14.413Z,5.03
2023-05-23T09:24:11.019Z,5.30
2023-05-23T09:26:38.068Z,5.88
2023-05-23T09:29:06.421Z,6.47
2023-05-23T09:31:33.107Z,6.00
2023-05-23T09:34:02.066Z,5.88
2023-05-23T09:36:34.891Z,5.63
2023-05-23T09:39:05.629Z,6.50
2023-05-23T09:41:35.626Z,5.85
2023-05-23T09:44:08.992Z,5.35
2023-05-23T09:46:40.413Z,5.95
2023-05-23T09:49:18.077Z,5.47
2023-05-23T09:51:58.013Z,4.85
2023-05-23T09:54:24.456Z,5.05
2023-05-23T09:56:53.810Z,4.13
2023-05-23T09:59:24.191Z,5.50
2023-05-23T10:01:52.808Z,5.18
2023-05-23T10:04:25.206Z,5.55
2023-05-23T10:06:57.636Z,5.80
2023-05-23T10:09:26.927Z,4.63
2023-05-23T10:12:20.551Z,5.50
2023-05-23T10:14:54.976Z,5.32
2023-05-23T10:17:40.124Z,4.82
2023-05-23T10:20:16.401Z,5.65
2023-05-23T10:22:43.883Z,4.88
2023-05-23T10:25:10.592Z,4.55
2023-05-23T10:27:38.913Z,4.72
2023-05-23T10:30:07.811Z,5.32
2023-05-23T10:32:35.971Z,5.50
2023-05-23T10:35:20.593Z,5.13
2023-05-23T10:38:00.568Z,5.63
2023-05-23T10:40:29.845Z,4.22
2023-05-23T10:43:05.697Z,4.63
2023-05-23T10:45:42.145Z,5.07
2023-05-23T10:48:35.396Z,4.22
2023-05-23T10:51:04.917Z,3.80
2023-05-23T10:53:34.345Z,3.50
2023-05-23T10:56:00.970Z,3.53
2023-05-23T10:58:30.762Z,3.08
2023-05-23T11:01:00.573Z,2.67
2023-05-23T11:03:45.888Z,3.50
2023-05-23T11:06:43.122Z,3.28
2023-05-23T11:09:14.923Z,3.17
2023-05-23T11:12:05.938Z,3.75
2023-05-23T11:14:33.647Z,3.00
2023-05-23T11:17:14.695Z,4.10
2023-05-23T11:19:58.448Z,3.70
2023-05-23T11:22:31.616Z,2.78
2023-05-23T11:24:59.031Z,2.67
2023-05-23T11:27:40.149Z,3.45
2023-05-23T11:30:15.046Z,2.80
2023-05-23T11:32:42.996Z,2.90
2023-05-23T11:35:10.860Z,2.85
2023-05-23T11:37:40.808Z,2.70
2023-05-23T11:40:32.971Z,3.85
2023-05-23T11:43:00.702Z,3.83
2023-05-23T11:45:29.591Z,3.67
2023-05-23T11:47:56.213Z,4.22
2023-05-23T11:50:24.305Z,3.30
2023-05-23T11:52:53.842Z,3.97
2023-05-23T11:55:21.556Z,3.33
2023-05-23T11:57:49.536Z,4.05
2023-05-23T12:00:16.469Z,2.80
2023-05-23T12:02:44.375Z,3.53
2023-05-23T12:05:13.782Z,3.10
2023-05-23T12:07:47.793Z,2.90
2023-05-23T12:10:16.598Z,3.17
2023-05-23T12:12:43.513Z,2.75
2023-05-23T12:15:11.491Z,3.05
2023-05-23T12:17:39.283Z,2.47
2023-05-23T12:20:08.400Z,2.60
2023-05-23T12:22:35.079Z,2.80
2023-05-23T12:25:02.080Z,2.40
2023-05-23T12:27:30.217Z,2.63
2023-05-23T12:30:10.460Z,3.08
2023-05-23T12:32:41.656Z,2.78
2023-05-23T12:35:13.305Z,2.80
2023-05-23T12:37:40.608Z,2.63
2023-05-23T12:40:18.158Z,2.63
2023-05-23T12:42:55.367Z,2.90
2023-05-23T12:45:36.419Z,3.03
2023-05-23T12:48:07.317Z,3.40
2023-05-23T12:50:34.230Z,3.00
2023-05-23T12:53:00.763Z,2.50
2023-05-23T12:55:27.217Z,2.85
2023-05-23T12:57:53.685Z,2.78
2023-05-23T13:00:21.428Z,2.88
2023-05-23T13:02:49.202Z,2.67
2023-05-23T13:05:15.757Z,2.78
2023-05-23T13:07:42.257Z,3.53
2023-05-23T13:10:09.538Z,3.28
2023-05-23T13:12:36.100Z,2.78
2023-05-23T13:15:02.590Z,3.15
2023-05-23T13:17:29.137Z,2.60
2023-05-23T13:19:55.591Z,2.83
2023-05-23T13:22:22.075Z,3.10
2023-05-23T13:24:48.550Z,3.22
2023-05-23T13:27:14.974Z,2.80
2023-05-23T13:29:41.986Z,3.17
2023-05-23T13:32:08.471Z,3.08
2023-05-23T13:34:37.328Z,2.80
2023-05-23T13:37:04.799Z,2.45
2023-05-23T13:39:31.253Z,2.40
2023-05-23T13:41:57.852Z,2.85
2023-05-23T13:44:24.476Z,3.05
2023-05-23T13:46:51.101Z,2.85
2023-05-23T13:49:17.637Z,2.92
2023-05-23T13:51:44.564Z,2.70
2023-05-23T13:54:11.010Z,2.10
2023-05-23T13:56:39.679Z,2.30
2023-05-23T13:59:06.102Z,2.72
2023-05-23T14:01:32.594Z,2.35
2023-05-23T14:03:59.030Z,2.28
2023-05-23T14:06:25.557Z,2.47
2023-05-23T14:08:51.996Z,2.90
2023-05-23T14:11:18.931Z,2.53
2023-05-23T14:13:45.450Z,2.42
2023-05-23T14:16:11.976Z,2.58
2023-05-23T14:18:38.465Z,2.55
2023-05-23T14:21:04.939Z,2.67
2023-05-23T14:23:31.834Z,2.60
2023-05-23T14:25:58.458Z,3.05
2023-05-23T14:28:24.987Z,2.70
2023-05-23T14:30:51.635Z,2.83
2023-05-23T14:33:19.388Z,2.50
2023-05-23T14:35:45.900Z,2.60
2023-05-23T14:38:12.396Z,2.33
2023-05-23T14:40:38.847Z,2.95
2023-05-23T14:43:05.439Z,2.30
2023-05-23T14:45:32.036Z,2.55
2023-05-23T14:47:58.553Z,2.92
2023-05-23T14:50:26.270Z,2.60
2023-05-23T14:52:52.798Z,2.47
2023-05-23T14:55:19.440Z,2.60
2023-05-23T14:57:45.927Z,2.40
2023-05-23T15:00:13.181Z,2.58
2023-05-23T15:02:40.005Z,2.58
2023-05-23T15:05:08.180Z,2.38
2023-05-23T15:07:35.279Z,2.53
2023-05-23T15:10:02.733Z,2.55
2023-05-23T15:12:29.225Z,2.40
2023-05-23T15:15:03.008Z,2.30
2023-05-23T15:17:33.921Z,3.10
2023-05-23T15:20:00.800Z,2.42
2023-05-23T15:22:36.379Z,2.72
2023-05-23T15:25:05.732Z,2.38
2023-05-23T15:27:32.263Z,2.03
2023-05-23T15:29:59.217Z,2.38
2023-05-23T15:32:25.732Z,2.30
2023-05-23T15:34:52.241Z,2.55
2023-05-23T15:37:18.691Z,2.58
2023-05-23T15:39:45.277Z,2.30
2023-05-23T15:42:11.823Z,3.22
2023-05-23T15:44:38.378Z,2.92
2023-05-23T15:47:05.116Z,2.70
2023-05-23T15:49:31.650Z,2.25
2023-05-23T15:51:58.385Z,2.15
2023-05-23T15:54:25.215Z,2.20
2023-05-23T15:56:51.674Z,2.13
2023-05-23T15:59:18.321Z,2.03
2023-05-23T16:01:44.798Z,2.28
2023-05-23T16:04:11.484Z,2.40
2023-05-23T16:06:39.304Z,2.20
2023-05-23T16:09:06.130Z,2.40
2023-05-23T16:11:32.629Z,2.33
2023-05-23T16:13:59.745Z,2.58
2023-05-23T16:16:26.299Z,3.05
2023-05-23T16:18:53.226Z,2.00
2023-05-23T16:21:20.820Z,2.53
2023-05-23T16:23:50.670Z,2.92
2023-05-23T16:26:18.643Z,2.50
2023-05-23T16:28:45.405Z,2.55
2023-05-23T16:31:16.561Z,2.70
2023-05-23T16:33:44.191Z,2.38
2023-05-23T16:36:11.243Z,2.40
2023-05-23T16:38:37.736Z,3.20
2023-05-23T16:41:04.383Z,2.85
2023-05-23T16:43:30.918Z,2.70
2023-05-23T16:45:57.915Z,2.33
2023-05-23T16:48:24.817Z,2.42
2023-05-23T16:50:53.177Z,2.30
2023-05-23T16:53:20.001Z,2.65
2023-05-23T16:55:46.778Z,2.03
2023-05-23T16:58:13.374Z,2.33
2023-05-23T17:00:39.790Z,2.67
2023-05-23T17:03:06.783Z,2.78
2023-05-23T17:05:34.101Z,2.50
2023-05-23T17:08:01.960Z,2.28
2023-05-23T17:10:28.575Z,2.47
2023-05-23T17:12:55.047Z,2.60
2023-05-23T17:15:21.614Z,2.15
2023-05-23T17:17:48.090Z,2.40
2023-05-23T17:20:14.949Z,2.53
2023-05-23T17:22:41.730Z,2.65
2023-05-23T17:25:08.776Z,2.28
2023-05-23T17:27:35.241Z,2.58
2023-05-23T17:30:04.852Z,2.10
2023-05-23T17:32:31.632Z,2.50
2023-05-23T17:34:58.157Z,2.47
2023-05-23T17:37:26.222Z,2.60
2023-05-23T17:39:54.616Z,2.90
2023-05-23T17:42:22.804Z,2.90
2023-05-23T17:44:49.228Z,3.20
2023-05-23T17:47:15.714Z,2.83
2023-05-23T17:49:42.256Z,2.53
2023-05-23T17:52:09.944Z,2.80
2023-05-23T17:54:39.294Z,3.13
2023-05-23T17:57:05.941Z,2.60
2023-05-23T17:59:32.789Z,2.90
2023-05-23T18:02:00.132Z,2.60
2023-05-23T18:04:26.634Z,2.65
2023-05-23T18:06:53.117Z,2.58
2023-05-23T18:09:19.651Z,2.53
2023-05-23T18:11:46.337Z,2.63
2023-05-23T18:14:12.789Z,2.35
2023-05-23T18:16:39.573Z,2.88
2023-05-23T18:19:06.371Z,2.72
2023-05-23T18:21:34.986Z,2.30
2023-05-23T18:24:03.600Z,2.88
2023-05-23T18:26:30.284Z,2.75
2023-05-23T18:28:56.711Z,2.47
2023-05-23T18:31:23.155Z,2.63
2023-05-23T18:33:49.647Z,2.83
2023-05-23T18:36:16.264Z,2.40
2023-05-23T18:38:42.779Z,2.28
2023-05-23T18:41:13.217Z,2.60
2023-05-23T18:43:41.121Z,3.15
2023-05-23T18:46:07.544Z,2.70
2023-05-23T18:48:35.743Z,2.40
2023-05-23T18:51:02.590Z,2.95
2023-05-23T18:53:29.118Z,2.88
2023-05-23T18:55:55.610Z,2.72
2023-05-23T18:58:22.133Z,2.50
2023-05-23T19:00:48.982Z,2.40
2023-05-23T19:03:16.743Z,2.80
2023-05-23T19:05:43.301Z,2.35
2023-05-23T19:08:09.741Z,2.80
2023-05-23T19:10:36.414Z,2.33
2023-05-23T19:13:03.716Z,1.98
2023-05-23T19:15:30.204Z,2.42
2023-05-23T19:17:56.720Z,2.83
2023-05-23T19:20:23.191Z,3.00
2023-05-23T19:22:51.861Z,3.20
2023-05-23T19:25:19.589Z,2.80
2023-05-23T19:27:46.062Z,2.60
2023-05-23T19:30:12.625Z,2.17
2023-05-23T19:32:39.172Z,2.22
2023-05-23T19:35:06.067Z,2.65
2023-05-23T19:37:32.548Z,2.90
2023-05-23T19:39:59.006Z,2.42
2023-05-23T19:42:25.483Z,2.58
2023-05-23T19:44:52.663Z,2.67
2023-05-23T19:47:19.142Z,2.50
2023-05-23T19:49:45.618Z,2.20
2023-05-23T19:52:12.034Z,2.42
2023-05-23T19:54:38.523Z,3.03
2023-05-23T19:57:05.282Z,2.80
2023-05-23T19:59:31.730Z,2.67
2023-05-23T20:01:58.312Z,2.90
2023-05-23T20:04:25.030Z,2.25
2023-05-23T20:06:52.204Z,2.22
2023-05-23T20:09:18.654Z,2.33
2023-05-23T20:11:45.198Z,2.50
2023-05-23T20:14:12.452Z,2.42
2023-05-23T20:16:39.140Z,2.60
2023-05-23T20:19:06.402Z,1.90
2023-05-23T20:21:33.193Z,1.90
2023-05-23T20:23:59.615Z,2.38
2023-05-23T20:26:26.748Z,2.55
2023-05-23T20:28:53.261Z,2.63
2023-05-23T20:31:19.887Z,2.70
2023-05-23T20:33:46.682Z,2.30
2023-05-23T20:36:13.115Z,2.65
2023-05-23T20:38:40.997Z,2.53
2023-05-23T20:41:07.511Z,2.40
2023-05-23T20:43:37.108Z,2.50
2023-05-23T20:46:08.986Z,2.33
2023-05-23T20:48:35.921Z,2.13
2023-05-23T20:51:02.675Z,2.30
2023-05-23T20:53:30.034Z,2.10
2023-05-23T20:55:56.545Z,2.55
2023-05-23T20:58:23.382Z,2.30
2023-05-23T21:00:50.745Z,2.40
2023-05-23T21:03:17.940Z,2.30
2023-05-23T21:05:44.489Z,2.25
2023-05-23T21:08:11.214Z,2.30
2023-05-23T21:10:38.130Z,2.00
2023-05-23T21:13:04.593Z,2.63
2023-05-23T21:15:31.199Z,2.50
2023-05-23T21:17:57.748Z,2.25
2023-05-23T21:20:24.304Z,2.30
2023-05-23T21:22:51.120Z,1.75
2023-05-23T21:25:17.801Z,2.10
2023-05-23T21:27:44.292Z,2.20
2023-05-23T21:30:11.282Z,2.20
2023-05-23T21:32:37.971Z,2.20
2023-05-23T21:35:04.899Z,2.80
2023-05-23T21:37:31.711Z,2.50
2023-05-23T21:39:58.149Z,2.42
2023-05-23T21:42:25.440Z,2.30
2023-05-23T21:44:51.880Z,2.22
2023-05-23T21:47:18.427Z,2.83
2023-05-23T21:49:44.992Z,2.55
2023-05-23T21:52:11.674Z,2.58
2023-05-23T21:54:38.101Z,2.40
2023-05-23T21:57:05.113Z,2.40
2023-05-23T21:59:31.568Z,2.63
2023-05-23T22:01:58.065Z,2.47
2023-05-23T22:04:25.162Z,2.42
2023-05-23T22:06:52.365Z,2.67
2023-05-23T22:09:19.146Z,2.70
2023-05-23T22:11:45.959Z,2.40
2023-05-23T22:14:12.518Z,2.85
2023-05-23T22:16:39.264Z,2.90
2023-05-23T22:19:06.421Z,2.53
2023-05-23T22:21:32.918Z,2.03
2023-05-23T22:23:59.475Z,2.97
2023-05-23T22:26:26.127Z,2.38
2023-05-23T22:28:53.563Z,2.67
2023-05-23T22:31:20.109Z,2.28
2023-05-23T22:33:46.705Z,2.50
2023-05-23T22:36:13.308Z,2.28
2023-05-23T22:38:40.716Z,2.75
2023-05-23T22:41:07.400Z,2.35
2023-05-23T22:43:33.994Z,2.58
2023-05-23T22:46:00.595Z,2.30
2023-05-23T22:48:27.904Z,2.55
2023-05-23T22:50:54.701Z,2.72
2023-05-23T22:53:22.636Z,2.67
2023-05-23T22:55:49.669Z,2.60
2023-05-23T22:58:16.127Z,2.72
2023-05-23T23:00:43.575Z,3.25
2023-05-23T23:03:11.417Z,2.55
2023-05-23T23:05:38.091Z,2.72
2023-05-23T23:08:04.617Z,2.90
2023-05-23T23:10:31.080Z,2.58
2023-05-23T23:12:57.529Z,2.53
2023-05-23T23:15:24.785Z,2.30
2023-05-23T23:17:51.423Z,2.38
2023-05-23T23:20:19.389Z,2.30
2023-05-23T23:22:46.951Z,2.85
2023-05-23T23:25:14.060Z,2.58
2023-05-23T23:27:40.470Z,2.63
2023-05-23T23:30:07.594Z,3.03
2023-05-23T23:32:34.517Z,2.85
2023-05-23T23:35:01.507Z,2.63
2023-05-23T23:37:27.969Z,3.25
2023-05-23T23:39:54.395Z,3.03
2023-05-23T23:42:20.975Z,2.33
2023-05-23T23:44:48.038Z,3.00
2023-05-23T23:47:14.776Z,2.97
2023-05-23T23:49:42.104Z,2.70
2023-05-23T23:52:08.841Z,2.78
2023-05-23T23:54:35.433Z,2.70
2023-05-23T23:57:01.893Z,2.30
2023-05-23T23:59:28.833Z,2.70
